sensor_id;sensor_type;location;lat;lon;timestamp;pressure;altitude;pressure_sealevel;temperature;humidity
51289;BME280;37372;52.294;5.152;2023-05-09T00:01:24;101772.84;;;13.44;92.47
51289;BME280;37372;52.294;5.152;2023-05-09T00:03:51;101771.56;;;13.47;92.50
51289;BME280;37372;52.294;5.152;2023-05-09T00:06:17;101771.94;;;13.50;92.21
51289;BME280;37372;52.294;5.152;2023-05-09T00:08:43;101773.16;;;13.54;92.18
51289;BME280;37372;52.294;5.152;2023-05-09T00:11:10;101764.06;;;13.54;91.64
51289;BME280;37372;52.294;5.152;2023-05-09T00:13:36;101763.22;;;13.53;91.67
51289;BME280;37372;52.294;5.152;2023-05-09T00:16:03;101762.16;;;13.54;91.81
51289;BME280;37372;52.294;5.152;2023-05-09T00:18:30;101762.97;;;13.55;91.80
51289;BME280;37372;52.294;5.152;2023-05-09T00:21:01;101756.63;;;13.54;91.80
51289;BME280;37372;52.294;5.152;2023-05-09T00:23:37;101755.16;;;13.52;91.63
51289;BME280;37372;52.294;5.152;2023-05-09T00:26:03;101751.97;;;13.55;91.77
51289;BME280;37372;52.294;5.152;2023-05-09T00:28:29;101755.94;;;13.59;91.74
51289;BME280;37372;52.294;5.152;2023-05-09T00:30:55;101745.97;;;13.58;91.52
51289;BME280;37372;52.294;5.152;2023-05-09T00:33:21;101743.84;;;13.60;91.69
51289;BME280;37372;52.294;5.152;2023-05-09T00:35:46;101732.66;;;13.55;91.56
51289;BME280;37372;52.294;5.152;2023-05-09T00:38:12;101729.06;;;13.54;91.87
51289;BME280;37372;52.294;5.152;2023-05-09T00:40:37;101736.25;;;13.55;91.68
51289;BME280;37372;52.294;5.152;2023-05-09T00:43:03;101734.19;;;13.51;91.47
51289;BME280;37372;52.294;5.152;2023-05-09T00:45:29;101732.25;;;13.51;91.82
51289;BME280;37372;52.294;5.152;2023-05-09T00:47:55;101727.22;;;13.48;91.46
51289;BME280;37372;52.294;5.152;2023-05-09T00:50:21;101721.53;;;13.43;92.34
51289;BME280;37372;52.294;5.152;2023-05-09T00:52:47;101722.84;;;13.41;92.25
51289;BME280;37372;52.294;5.152;2023-05-09T00:55:17;101724.31;;;13.43;92.26
51289;BME280;37372;52.294;5.152;2023-05-09T00:57:44;101725.75;;;13.46;92.19
51289;BME280;37372;52.294;5.152;2023-05-09T01:00:11;101721.78;;;13.42;91.64
51289;BME280;37372;52.294;5.152;2023-05-09T01:02:46;101721.22;;;13.51;92.27
51289;BME280;37372;52.294;5.152;2023-05-09T01:05:15;101714.50;;;13.47;91.62
51289;BME280;37372;52.294;5.152;2023-05-09T01:08:05;101709.06;;;13.41;91.89
51289;BME280;37372;52.294;5.152;2023-05-09T01:10:42;101701.41;;;13.43;91.96
51289;BME280;37372;52.294;5.152;2023-05-09T01:13:37;101699.13;;;13.40;91.79
51289;BME280;37372;52.294;5.152;2023-05-09T01:19:06;101692.53;;;13.41;91.54
51289;BME280;37372;52.294;5.152;2023-05-09T01:21:34;101693.13;;;13.43;91.71
51289;BME280;37372;52.294;5.152;2023-05-09T01:27:21;101689.31;;;13.44;91.79
51289;BME280;37372;52.294;5.152;2023-05-09T01:30:03;101681.50;;;13.41;91.91
51289;BME280;37372;52.294;5.152;2023-05-09T01:32:31;101686.53;;;13.44;92.08
51289;BME280;37372;52.294;5.152;2023-05-09T01:35:02;101677.44;;;13.43;92.23
51289;BME280;37372;52.294;5.152;2023-05-09T01:37:34;101682.94;;;13.43;91.81
51289;BME280;37372;52.294;5.152;2023-05-09T01:40:10;101679.66;;;13.35;92.12
51289;BME280;37372;52.294;5.152;2023-05-09T01:42:48;101672.00;;;13.37;92.78
51289;BME280;37372;52.294;5.152;2023-05-09T01:45:19;101683.03;;;13.37;92.42
51289;BME280;37372;52.294;5.152;2023-05-09T01:47:48;101672.84;;;13.37;92.48
51289;BME280;37372;52.294;5.152;2023-05-09T01:50:20;101673.31;;;13.34;92.40
51289;BME280;37372;52.294;5.152;2023-05-09T01:52:48;101663.81;;;13.30;92.75
51289;BME280;37372;52.294;5.152;2023-05-09T01:55:28;101661.06;;;13.30;93.08
51289;BME280;37372;52.294;5.152;2023-05-09T01:57:58;101648.66;;;13.21;93.20
51289;BME280;37372;52.294;5.152;2023-05-09T02:00:27;101656.09;;;13.20;93.59
51289;BME280;37372;52.294;5.152;2023-05-09T02:02:53;101659.84;;;13.19;93.24
51289;BME280;37372;52.294;5.152;2023-05-09T02:05:24;101651.47;;;13.14;93.35
51289;BME280;37372;52.294;5.152;2023-05-09T02:07:52;101649.16;;;13.11;93.48
51289;BME280;37372;52.294;5.152;2023-05-09T02:10:22;101650.44;;;13.09;93.67
51289;BME280;37372;52.294;5.152;2023-05-09T02:12:51;101636.88;;;13.07;93.93
51289;BME280;37372;52.294;5.152;2023-05-09T02:15:22;101637.13;;;13.06;93.77
51289;BME280;37372;52.294;5.152;2023-05-09T02:17:49;101634.13;;;13.07;93.91
51289;BME280;37372;52.294;5.152;2023-05-09T02:20:21;101633.94;;;13.09;93.61
51289;BME280;37372;52.294;5.152;2023-05-09T02:22:47;101640.50;;;13.08;93.77
51289;BME280;37372;52.294;5.152;2023-05-09T02:25:13;101625.72;;;13.02;93.41
51289;BME280;37372;52.294;5.152;2023-05-09T02:27:45;101635.91;;;13.01;94.14
51289;BME280;37372;52.294;5.152;2023-05-09T02:30:16;101634.59;;;13.04;93.84
51289;BME280;37372;52.294;5.152;2023-05-09T02:33:01;101625.09;;;13.00;93.75
51289;BME280;37372;52.294;5.152;2023-05-09T02:35:30;101634.19;;;13.00;94.27
51289;BME280;37372;52.294;5.152;2023-05-09T02:38:15;101626.66;;;12.96;94.23
51289;BME280;37372;52.294;5.152;2023-05-09T02:40:42;101629.09;;;13.04;94.27
51289;BME280;37372;52.294;5.152;2023-05-09T02:43:08;101631.38;;;13.07;93.79
51289;BME280;37372;52.294;5.152;2023-05-09T02:45:37;101625.50;;;13.04;93.45
51289;BME280;37372;52.294;5.152;2023-05-09T02:48:04;101632.69;;;13.05;94.23
51289;BME280;37372;52.294;5.152;2023-05-09T02:50:30;101627.34;;;13.10;93.90
51289;BME280;37372;52.294;5.152;2023-05-09T02:52:55;101620.75;;;13.11;93.60
51289;BME280;37372;52.294;5.152;2023-05-09T02:55:21;101618.84;;;13.11;93.53
51289;BME280;37372;52.294;5.152;2023-05-09T02:58:08;101618.59;;;13.13;nan
51289;BME280;37372;52.294;5.152;2023-05-09T03:00:37;101610.34;;;13.13;93.56
51289;BME280;37372;52.294;5.152;2023-05-09T03:03:03;101606.31;;;13.15;93.76
51289;BME280;37372;52.294;5.152;2023-05-09T03:05:32;101603.16;;;13.12;94.15
51289;BME280;37372;52.294;5.152;2023-05-09T03:08:03;101594.19;;;12.98;94.60
51289;BME280;37372;52.294;5.152;2023-05-09T03:10:34;101591.69;;;12.96;95.46
51289;BME280;37372;52.294;5.152;2023-05-09T03:13:02;101588.25;;;13.01;96.25
51289;BME280;37372;52.294;5.152;2023-05-09T03:15:39;101592.22;;;13.05;95.86
51289;BME280;37372;52.294;5.152;2023-05-09T03:18:05;101591.38;;;13.05;96.20
51289;BME280;37372;52.294;5.152;2023-05-09T03:20:35;101590.53;;;13.04;95.42
51289;BME280;37372;52.294;5.152;2023-05-09T03:23:03;101593.03;;;13.06;96.20
51289;BME280;37372;52.294;5.152;2023-05-09T03:25:49;101589.22;;;13.07;96.08
51289;BME280;37372;52.294;5.152;2023-05-09T03:28:18;101571.47;;;13.02;95.93
51289;BME280;37372;52.294;5.152;2023-05-09T03:30:46;101575.16;;;12.96;95.95
51289;BME280;37372;52.294;5.152;2023-05-09T03:33:12;101567.13;;;12.95;95.88
51289;BME280;37372;52.294;5.152;2023-05-09T03:35:38;101560.16;;;12.92;96.26
51289;BME280;37372;52.294;5.152;2023-05-09T03:38:03;101561.53;;;12.83;97.19
51289;BME280;37372;52.294;5.152;2023-05-09T03:40:30;101560.63;;;12.89;97.09
51289;BME280;37372;52.294;5.152;2023-05-09T03:43:03;101555.72;;;12.91;97.16
51289;BME280;37372;52.294;5.152;2023-05-09T03:45:28;101548.13;;;12.87;97.47
51289;BME280;37372;52.294;5.152;2023-05-09T03:47:53;101545.38;;;12.87;97.31
51289;BME280;37372;52.294;5.152;2023-05-09T03:50:19;101536.03;;;12.88;97.45
51289;BME280;37372;52.294;5.152;2023-05-09T03:52:44;101536.50;;;12.85;97.17
51289;BME280;37372;52.294;5.152;2023-05-09T03:55:10;101533.75;;;12.85;97.80
51289;BME280;37372;52.294;5.152;2023-05-09T03:57:36;101538.03;;;12.81;97.26
51289;BME280;37372;52.294;5.152;2023-05-09T04:00:03;101537.34;;;12.85;97.34
51289;BME280;37372;52.294;5.152;2023-05-09T04:02:34;101533.59;;;12.80;97.00
51289;BME280;37372;52.294;5.152;2023-05-09T04:05:00;101532.31;;;12.82;97.53
51289;BME280;37372;52.294;5.152;2023-05-09T04:07:26;101526.19;;;12.80;97.35
51289;BME280;37372;52.294;5.152;2023-05-09T04:09:57;101535.66;;;12.84;97.21
51289;BME280;37372;52.294;5.152;2023-05-09T04:12:23;101528.50;;;12.83;96.88
51289;BME280;37372;52.294;5.152;2023-05-09T04:14:49;101520.81;;;12.85;97.31
51289;BME280;37372;52.294;5.152;2023-05-09T04:17:15;101518.31;;;12.84;96.93
51289;BME280;37372;52.294;5.152;2023-05-09T04:19:45;101512.66;;;12.79;96.61
51289;BME280;37372;52.294;5.152;2023-05-09T04:22:17;101523.22;;;12.82;97.47
51289;BME280;37372;52.294;5.152;2023-05-09T04:24:43;101521.38;;;12.76;96.72
51289;BME280;37372;52.294;5.152;2023-05-09T04:27:09;101522.59;;;12.80;97.19
51289;BME280;37372;52.294;5.152;2023-05-09T04:29:35;101521.31;;;12.82;96.94
51289;BME280;37372;52.294;5.152;2023-05-09T04:32:03;101523.16;;;12.88;97.05
51289;BME280;37372;52.294;5.152;2023-05-09T04:34:32;101521.66;;;12.86;96.62
51289;BME280;37372;52.294;5.152;2023-05-09T04:36:57;101519.53;;;12.88;95.81
51289;BME280;37372;52.294;5.152;2023-05-09T04:39:23;101517.84;;;12.87;95.56
51289;BME280;37372;52.294;5.152;2023-05-09T04:41:48;101511.56;;;12.98;96.02
51289;BME280;37372;52.294;5.152;2023-05-09T04:44:14;101512.66;;;12.97;95.70
51289;BME280;37372;52.294;5.152;2023-05-09T04:46:40;101495.19;;;13.03;95.78
51289;BME280;37372;52.294;5.152;2023-05-09T04:49:05;101501.22;;;13.12;95.73
51289;BME280;37372;52.294;5.152;2023-05-09T04:51:35;101492.50;;;13.15;95.18
51289;BME280;37372;52.294;5.152;2023-05-09T04:54:00;101488.91;;;13.14;95.24
51289;BME280;37372;52.294;5.152;2023-05-09T04:56:29;101488.88;;;13.21;95.31
51289;BME280;37372;52.294;5.152;2023-05-09T04:58:55;101483.47;;;13.26;94.92
51289;BME280;37372;52.294;5.152;2023-05-09T05:01:20;101484.47;;;13.13;94.18
51289;BME280;37372;52.294;5.152;2023-05-09T05:03:46;101486.09;;;13.21;94.25
51289;BME280;37372;52.294;5.152;2023-05-09T05:06:14;101479.94;;;13.19;93.78
51289;BME280;37372;52.294;5.152;2023-05-09T05:08:40;101478.84;;;13.20;94.51
51289;BME280;37372;52.294;5.152;2023-05-09T05:11:05;101476.03;;;13.26;94.52
51289;BME280;37372;52.294;5.152;2023-05-09T05:13:50;101471.31;;;13.34;94.63
51289;BME280;37372;52.294;5.152;2023-05-09T05:16:18;101461.53;;;13.49;93.77
51289;BME280;37372;52.294;5.152;2023-05-09T05:18:53;101464.03;;;13.51;93.02
51289;BME280;37372;52.294;5.152;2023-05-09T05:21:19;101457.72;;;13.62;93.32
51289;BME280;37372;52.294;5.152;2023-05-09T05:23:45;101457.56;;;13.57;93.22
51289;BME280;37372;52.294;5.152;2023-05-09T05:26:10;101455.09;;;13.67;93.13
51289;BME280;37372;52.294;5.152;2023-05-09T05:28:36;101460.75;;;13.72;91.83
51289;BME280;37372;52.294;5.152;2023-05-09T05:31:08;101456.06;;;13.73;91.28
51289;BME280;37372;52.294;5.152;2023-05-09T05:33:33;101445.28;;;13.83;91.97
51289;BME280;37372;52.294;5.152;2023-05-09T05:36:00;101445.78;;;13.80;91.69
51289;BME280;37372;52.294;5.152;2023-05-09T05:38:26;101441.34;;;13.79;91.31
51289;BME280;37372;52.294;5.152;2023-05-09T05:40:51;101436.03;;;13.77;91.75
51289;BME280;37372;52.294;5.152;2023-05-09T05:43:17;101437.41;;;13.98;90.65
51289;BME280;37372;52.294;5.152;2023-05-09T05:45:42;101438.84;;;14.01;90.81
51289;BME280;37372;52.294;5.152;2023-05-09T05:48:08;101439.31;;;13.98;90.33
51289;BME280;37372;52.294;5.152;2023-05-09T05:50:33;101437.03;;;13.95;90.50
51289;BME280;37372;52.294;5.152;2023-05-09T05:53:00;101430.66;;;13.94;90.63
51289;BME280;37372;52.294;5.152;2023-05-09T05:55:26;101424.78;;;13.91;90.06
51289;BME280;37372;52.294;5.152;2023-05-09T05:57:52;101423.47;;;13.93;90.56
51289;BME280;37372;52.294;5.152;2023-05-09T06:00:26;101429.00;;;13.93;90.01
51289;BME280;37372;52.294;5.152;2023-05-09T06:02:52;101419.75;;;13.88;90.37
51289;BME280;37372;52.294;5.152;2023-05-09T06:05:56;101422.75;;;13.86;89.96
51289;BME280;37372;52.294;5.152;2023-05-09T06:08:22;101420.22;;;13.85;90.60
51289;BME280;37372;52.294;5.152;2023-05-09T06:10:47;101419.16;;;13.74;89.77
51289;BME280;37372;52.294;5.152;2023-05-09T06:13:12;101414.94;;;13.83;90.05
51289;BME280;37372;52.294;5.152;2023-05-09T06:15:38;101414.34;;;13.81;90.87
51289;BME280;37372;52.294;5.152;2023-05-09T06:18:03;101406.31;;;13.79;91.12
51289;BME280;37372;52.294;5.152;2023-05-09T06:20:28;101408.00;;;13.80;91.36
51289;BME280;37372;52.294;5.152;2023-05-09T06:22:54;101400.81;;;13.79;91.99
51289;BME280;37372;52.294;5.152;2023-05-09T06:25:24;101400.44;;;13.76;91.86
51289;BME280;37372;52.294;5.152;2023-05-09T06:27:52;101410.38;;;13.65;92.98
51289;BME280;37372;52.294;5.152;2023-05-09T06:30:18;101405.19;;;13.57;92.96
51289;BME280;37372;52.294;5.152;2023-05-09T06:32:43;101399.44;;;13.59;93.29
51289;BME280;37372;52.294;5.152;2023-05-09T06:35:09;101390.97;;;13.60;93.65
51289;BME280;37372;52.294;5.152;2023-05-09T06:37:34;101391.56;;;13.62;93.79
51289;BME280;37372;52.294;5.152;2023-05-09T06:40:00;101391.69;;;13.67;94.50
51289;BME280;37372;52.294;5.152;2023-05-09T06:42:35;101382.91;;;13.70;94.26
51289;BME280;37372;52.294;5.152;2023-05-09T06:45:13;101379.56;;;13.68;94.15
51289;BME280;37372;52.294;5.152;2023-05-09T06:47:40;101379.94;;;13.72;94.60
51289;BME280;37372;52.294;5.152;2023-05-09T06:50:06;101379.09;;;13.71;94.78
51289;BME280;37372;52.294;5.152;2023-05-09T06:52:35;101373.09;;;13.74;94.87
51289;BME280;37372;52.294;5.152;2023-05-09T06:55:01;101374.66;;;13.70;95.14
51289;BME280;37372;52.294;5.152;2023-05-09T06:57:27;101375.28;;;13.72;94.66
51289;BME280;37372;52.294;5.152;2023-05-09T06:59:52;101369.13;;;13.70;94.26
51289;BME280;37372;52.294;5.152;2023-05-09T07:02:18;101366.25;;;13.65;94.66
51289;BME280;37372;52.294;5.152;2023-05-09T07:04:45;101367.47;;;13.69;95.15
51289;BME280;37372;52.294;5.152;2023-05-09T07:07:11;101369.13;;;13.70;95.63
51289;BME280;37372;52.294;5.152;2023-05-09T07:09:36;101363.41;;;13.60;94.78
51289;BME280;37372;52.294;5.152;2023-05-09T07:12:02;101363.41;;;13.60;95.88
51289;BME280;37372;52.294;5.152;2023-05-09T07:14:28;101361.59;;;13.66;95.76
51289;BME280;37372;52.294;5.152;2023-05-09T07:16:53;101363.84;;;13.57;95.33
51289;BME280;37372;52.294;5.152;2023-05-09T07:19:19;101358.09;;;13.59;96.07
51289;BME280;37372;52.294;5.152;2023-05-09T07:21:45;101358.09;;;13.59;96.03
51289;BME280;37372;52.294;5.152;2023-05-09T07:24:11;101356.66;;;13.56;95.32
51289;BME280;37372;52.294;5.152;2023-05-09T07:26:36;101355.44;;;13.52;96.62
51289;BME280;37372;52.294;5.152;2023-05-09T07:29:09;101345.75;;;13.49;97.49
51289;BME280;37372;52.294;5.152;2023-05-09T07:31:34;101346.97;;;13.53;96.93
51289;BME280;37372;52.294;5.152;2023-05-09T07:34:00;101352.97;;;13.62;97.33
51289;BME280;37372;52.294;5.152;2023-05-09T07:36:26;101349.94;;;13.64;97.09
51289;BME280;37372;52.294;5.152;2023-05-09T07:39:23;101345.91;;;13.66;97.03
51289;BME280;37372;52.294;5.152;2023-05-09T07:41:48;101342.66;;;13.69;96.40
51289;BME280;37372;52.294;5.152;2023-05-09T07:44:17;101343.63;;;13.75;97.23
51289;BME280;37372;52.294;5.152;2023-05-09T07:46:46;101330.19;;;13.78;96.82
51289;BME280;37372;52.294;5.152;2023-05-09T07:49:12;101339.31;;;13.79;96.50
51289;BME280;37372;52.294;5.152;2023-05-09T07:55:11;101330.53;;;13.70;95.99
51289;BME280;37372;52.294;5.152;2023-05-09T07:57:38;101318.53;;;14.00;94.15
51289;BME280;37372;52.294;5.152;2023-05-09T08:00:04;101317.94;;;13.98;95.51
51289;BME280;37372;52.294;5.152;2023-05-09T08:02:31;101317.00;;;13.92;95.19
51289;BME280;37372;52.294;5.152;2023-05-09T08:04:57;101313.03;;;14.00;96.28
51289;BME280;37372;52.294;5.152;2023-05-09T08:07:22;101300.88;;;14.13;96.10
51289;BME280;37372;52.294;5.152;2023-05-09T08:09:47;101303.75;;;14.18;94.65
51289;BME280;37372;52.294;5.152;2023-05-09T08:12:13;101295.22;;;14.19;95.41
51289;BME280;37372;52.294;5.152;2023-05-09T08:14:38;101300.22;;;14.34;94.31
51289;BME280;37372;52.294;5.152;2023-05-09T08:17:08;101299.63;;;14.32;93.36
51289;BME280;37372;52.294;5.152;2023-05-09T08:19:36;101288.09;;;14.47;93.97
51289;BME280;37372;52.294;5.152;2023-05-09T08:22:16;101285.28;;;14.58;93.86
51289;BME280;37372;52.294;5.152;2023-05-09T08:24:42;101285.91;;;14.77;91.57
51289;BME280;37372;52.294;5.152;2023-05-09T08:27:08;101283.09;;;14.60;92.73
51289;BME280;37372;52.294;5.152;2023-05-09T08:29:57;101276.16;;;14.58;92.40
51289;BME280;37372;52.294;5.152;2023-05-09T08:32:22;101276.44;;;14.45;92.23
51289;BME280;37372;52.294;5.152;2023-05-09T08:34:47;101264.91;;;14.48;92.67
51289;BME280;37372;52.294;5.152;2023-05-09T08:37:12;101260.75;;;14.33;92.93
51289;BME280;37372;52.294;5.152;2023-05-09T08:39:38;101257.50;;;14.36;93.03
51289;BME280;37372;52.294;5.152;2023-05-09T08:42:03;101256.28;;;14.44;92.91
51289;BME280;37372;52.294;5.152;2023-05-09T08:44:30;101259.41;;;14.36;93.31
51289;BME280;37372;52.294;5.152;2023-05-09T08:47:01;101254.38;;;14.33;93.66
51289;BME280;37372;52.294;5.152;2023-05-09T08:49:29;101253.44;;;14.27;93.51
51289;BME280;37372;52.294;5.152;2023-05-09T08:51:56;101256.16;;;14.39;93.88
51289;BME280;37372;52.294;5.152;2023-05-09T08:54:22;101247.06;;;14.39;93.49
51289;BME280;37372;52.294;5.152;2023-05-09T08:56:50;101243.56;;;14.43;93.94
51289;BME280;37372;52.294;5.152;2023-05-09T08:59:17;101241.16;;;14.47;92.72
51289;BME280;37372;52.294;5.152;2023-05-09T09:01:47;101241.03;;;14.42;92.55
51289;BME280;37372;52.294;5.152;2023-05-09T09:04:13;101234.91;;;14.51;92.92
51289;BME280;37372;52.294;5.152;2023-05-09T09:06:58;101235.06;;;14.33;94.59
51289;BME280;37372;52.294;5.152;2023-05-09T09:09:24;101234.63;;;14.24;94.20
51289;BME280;37372;52.294;5.152;2023-05-09T09:11:51;101230.22;;;14.40;94.73
51289;BME280;37372;52.294;5.152;2023-05-09T09:14:22;101229.41;;;14.40;93.26
51289;BME280;37372;52.294;5.152;2023-05-09T09:16:50;101234.44;;;14.43;92.91
51289;BME280;37372;52.294;5.152;2023-05-09T09:19:17;101225.38;;;14.30;94.20
51289;BME280;37372;52.294;5.152;2023-05-09T09:21:47;101221.28;;;14.33;94.17
51289;BME280;37372;52.294;5.152;2023-05-09T09:24:20;101220.56;;;14.26;94.41
51289;BME280;37372;52.294;5.152;2023-05-09T09:26:56;101217.97;;;14.19;94.81
51289;BME280;37372;52.294;5.152;2023-05-09T09:29:23;101216.03;;;14.20;95.31
51289;BME280;37372;52.294;5.152;2023-05-09T09:31:53;101216.78;;;14.44;94.50
51289;BME280;37372;52.294;5.152;2023-05-09T09:34:22;101215.41;;;14.58;94.02
51289;BME280;37372;52.294;5.152;2023-05-09T09:36:48;101215.25;;;14.65;93.73
51289;BME280;37372;52.294;5.152;2023-05-09T09:39:22;101215.06;;;14.54;93.68
51289;BME280;37372;52.294;5.152;2023-05-09T09:41:52;101207.22;;;14.34;93.92
51289;BME280;37372;52.294;5.152;2023-05-09T09:44:20;101208.03;;;14.47;94.39
51289;BME280;37372;52.294;5.152;2023-05-09T09:46:51;101209.34;;;14.44;94.12
51289;BME280;37372;52.294;5.152;2023-05-09T09:49:25;101200.78;;;14.57;95.24
51289;BME280;37372;52.294;5.152;2023-05-09T09:51:53;101202.66;;;14.69;95.24
51289;BME280;37372;52.294;5.152;2023-05-09T09:54:18;101200.78;;;14.74;94.56
51289;BME280;37372;52.294;5.152;2023-05-09T09:59:34;101201.97;;;14.95;91.61
51289;BME280;37372;52.294;5.152;2023-05-09T10:02:05;101205.06;;;14.99;91.21
51289;BME280;37372;52.294;5.152;2023-05-09T10:04:36;101196.34;;;14.73;92.50
51289;BME280;37372;52.294;5.152;2023-05-09T10:07:11;101196.38;;;14.90;92.83
51289;BME280;37372;52.294;5.152;2023-05-09T10:09:37;101191.50;;;14.63;93.66
51289;BME280;37372;52.294;5.152;2023-05-09T10:12:04;101197.19;;;14.57;93.80
51289;BME280;37372;52.294;5.152;2023-05-09T10:14:33;101193.13;;;14.48;93.31
51289;BME280;37372;52.294;5.152;2023-05-09T10:17:08;101196.50;;;14.50;94.61
51289;BME280;37372;52.294;5.152;2023-05-09T10:19:36;101193.75;;;14.50;93.29
51289;BME280;37372;52.294;5.152;2023-05-09T10:22:08;101191.31;;;14.53;94.16
51289;BME280;37372;52.294;5.152;2023-05-09T10:24:41;101189.63;;;14.52;94.10
51289;BME280;37372;52.294;5.152;2023-05-09T10:27:18;101193.06;;;14.59;94.21
51289;BME280;37372;52.294;5.152;2023-05-09T10:30:16;101190.06;;;14.61;93.91
51289;BME280;37372;52.294;5.152;2023-05-09T10:35:12;101183.97;;;14.76;92.46
51289;BME280;37372;52.294;5.152;2023-05-09T10:37:38;101182.63;;;14.78;93.73
51289;BME280;37372;52.294;5.152;2023-05-09T10:40:04;101170.16;;;14.59;92.87
51289;BME280;37372;52.294;5.152;2023-05-09T10:42:35;101173.50;;;14.61;94.96
51289;BME280;37372;52.294;5.152;2023-05-09T10:45:00;101165.72;;;14.58;93.31
51289;BME280;37372;52.294;5.152;2023-05-09T10:47:26;101165.22;;;14.61;93.74
51289;BME280;37372;52.294;5.152;2023-05-09T10:49:53;101158.91;;;14.49;93.91
51289;BME280;37372;52.294;5.152;2023-05-09T10:52:22;101159.81;;;14.38;95.46
51289;BME280;37372;52.294;5.152;2023-05-09T10:55:01;101153.88;;;14.46;95.06
51289;BME280;37372;52.294;5.152;2023-05-09T10:57:29;101154.84;;;14.51;94.13
51289;BME280;37372;52.294;5.152;2023-05-09T10:59:58;101154.00;;;14.51;94.64
51289;BME280;37372;52.294;5.152;2023-05-09T11:02:24;101154.31;;;14.54;94.03
51289;BME280;37372;52.294;5.152;2023-05-09T11:07:39;101142.91;;;14.34;94.62
51289;BME280;37372;52.294;5.152;2023-05-09T11:10:16;101138.38;;;14.56;95.16
51289;BME280;37372;52.294;5.152;2023-05-09T11:12:53;101141.78;;;14.80;92.49
51289;BME280;37372;52.294;5.152;2023-05-09T11:15:19;101132.84;;;14.73;92.61
51289;BME280;37372;52.294;5.152;2023-05-09T11:17:50;101134.69;;;14.84;92.73
51289;BME280;37372;52.294;5.152;2023-05-09T11:20:28;101126.31;;;14.79;92.60
51289;BME280;37372;52.294;5.152;2023-05-09T11:22:57;101124.63;;;14.61;93.80
51289;BME280;37372;52.294;5.152;2023-05-09T11:25:28;101123.72;;;14.56;94.02
51289;BME280;37372;52.294;5.152;2023-05-09T11:27:59;101119.38;;;14.60;94.09
51289;BME280;37372;52.294;5.152;2023-05-09T11:30:35;101118.84;;;14.80;93.34
51289;BME280;37372;52.294;5.152;2023-05-09T11:33:05;101114.72;;;14.99;92.26
51289;BME280;37372;52.294;5.152;2023-05-09T11:35:41;101108.97;;;14.84;94.02
51289;BME280;37372;52.294;5.152;2023-05-09T11:38:08;101116.94;;;14.80;94.54
51289;BME280;37372;52.294;5.152;2023-05-09T11:40:34;101102.63;;;14.83;94.22
51289;BME280;37372;52.294;5.152;2023-05-09T11:43:00;101107.84;;;14.63;94.96
51289;BME280;37372;52.294;5.152;2023-05-09T11:45:28;101104.63;;;14.71;95.27
51289;BME280;37372;52.294;5.152;2023-05-09T11:47:55;101101.34;;;14.74;95.64
51289;BME280;37372;52.294;5.152;2023-05-09T11:50:39;101103.28;;;14.74;95.23
51289;BME280;37372;52.294;5.152;2023-05-09T11:53:06;101089.81;;;14.77;94.91
51289;BME280;37372;52.294;5.152;2023-05-09T11:55:40;101087.81;;;14.89;95.09
51289;BME280;37372;52.294;5.152;2023-05-09T11:58:06;101090.03;;;14.93;94.93
51289;BME280;37372;52.294;5.152;2023-05-09T12:00:32;101082.47;;;14.83;93.77
51289;BME280;37372;52.294;5.152;2023-05-09T12:02:57;101084.44;;;14.87;92.31
51289;BME280;37372;52.294;5.152;2023-05-09T12:05:23;101073.25;;;14.94;94.60
51289;BME280;37372;52.294;5.152;2023-05-09T12:07:49;101074.06;;;14.95;92.69
51289;BME280;37372;52.294;5.152;2023-05-09T12:10:18;101068.28;;;14.96;92.71
51289;BME280;37372;52.294;5.152;2023-05-09T12:12:49;101068.66;;;14.83;93.29
51289;BME280;37372;52.294;5.152;2023-05-09T12:15:16;101068.31;;;14.79;92.70
51289;BME280;37372;52.294;5.152;2023-05-09T12:17:43;101070.31;;;14.84;94.33
51289;BME280;37372;52.294;5.152;2023-05-09T12:20:09;101068.22;;;14.91;93.51
51289;BME280;37372;52.294;5.152;2023-05-09T12:22:42;101063.50;;;14.92;93.14
51289;BME280;37372;52.294;5.152;2023-05-09T12:25:20;101062.41;;;14.93;94.38
51289;BME280;37372;52.294;5.152;2023-05-09T12:27:50;101058.72;;;15.04;93.39
51289;BME280;37372;52.294;5.152;2023-05-09T12:30:18;101057.16;;;15.13;91.73
51289;BME280;37372;52.294;5.152;2023-05-09T12:32:44;101067.09;;;15.09;93.42
51289;BME280;37372;52.294;5.152;2023-05-09T12:35:11;101062.56;;;15.03;94.04
51289;BME280;37372;52.294;5.152;2023-05-09T12:37:37;101056.78;;;15.04;94.07
51289;BME280;37372;52.294;5.152;2023-05-09T12:40:11;101047.66;;;15.04;93.82
51289;BME280;37372;52.294;5.152;2023-05-09T12:42:45;101055.16;;;14.86;94.15
51289;BME280;37372;52.294;5.152;2023-05-09T12:45:13;101052.19;;;14.93;94.19
51289;BME280;37372;52.294;5.152;2023-05-09T12:47:38;101046.91;;;15.08;94.28
51289;BME280;37372;52.294;5.152;2023-05-09T12:50:06;101047.44;;;15.27;92.35
51289;BME280;37372;52.294;5.152;2023-05-09T12:52:39;101041.72;;;15.34;92.27
51289;BME280;37372;52.294;5.152;2023-05-09T12:57:37;101034.38;;;15.23;92.98
51289;BME280;37372;52.294;5.152;2023-05-09T13:00:08;101036.16;;;15.12;94.62
51289;BME280;37372;52.294;5.152;2023-05-09T13:02:38;101029.91;;;15.00;93.83
51289;BME280;37372;52.294;5.152;2023-05-09T13:05:09;101030.09;;;14.93;93.83
51289;BME280;37372;52.294;5.152;2023-05-09T13:07:49;101030.56;;;14.85;93.11
51289;BME280;37372;52.294;5.152;2023-05-09T13:10:25;101027.78;;;15.07;93.62
51289;BME280;37372;52.294;5.152;2023-05-09T13:12:55;101030.41;;;15.13;92.41
51289;BME280;37372;52.294;5.152;2023-05-09T13:15:21;101024.34;;;15.16;92.21
51289;BME280;37372;52.294;5.152;2023-05-09T13:17:58;101028.66;;;15.29;92.41
51289;BME280;37372;52.294;5.152;2023-05-09T13:20:24;101027.88;;;15.34;92.15